sensor_id;sensor_type;location;lat;lon;timestamp;temperature;humidity
6110;DHT22;3085;49.444;11.054;2023-04-29T00:01:37;12.30;99.90
6110;DHT22;3085;49.444;11.054;2023-04-29T00:04:03;12.30;99.90
6110;DHT22;3085;49.444;11.054;2023-04-29T00:06:32;12.20;99.90
6110;DHT22;3085;49.444;11.054;2023-04-29T00:08:59;12.20;99.90
6110;DHT22;3085;49.444;11.054;2023-04-29T00:11:25;12.20;99.90
6110;DHT22;3085;49.444;11.054;2023-04-29T00:13:52;12.10;99.90
6110;DHT22;3085;49.444;11.054;2023-04-29T00:16:20;12.10;99.90
6110;DHT22;3085;49.444;11.054;2023-04-29T00:18:47;12.20;99.90
6110;DHT22;3085;49.444;11.054;2023-04-29T00:21:14;12.20;99.90
6110;DHT22;3085;49.444;11.054;2023-04-29T00:23:41;12.20;99.90
6110;DHT22;3085;49.444;11.054;2023-04-29T00:26:07;12.20;99.90
6110;DHT22;3085;49.444;11.054;2023-04-29T00:28:34;12.20;99.90
6110;DHT22;3085;49.444;11.054;2023-04-29T00:31:01;12.20;99.90
6110;DHT22;3085;49.444;11.054;2023-04-29T00:33:29;12.20;99.90
6110;DHT22;3085;49.444;11.054;2023-04-29T00:35:56;12.20;99.90
6110;DHT22;3085;49.444;11.054;2023-04-29T00:38:23;12.20;99.90
6110;DHT22;3085;49.444;11.054;2023-04-29T00:40:50;12.20;99.90
6110;DHT22;3085;49.444;11.054;2023-04-29T00:43:17;12.20;99.90
6110;DHT22;3085;49.444;11.054;2023-04-29T00:45:44;12.20;99.90
6110;DHT22;3085;49.444;11.054;2023-04-29T00:48:11;12.20;99.90
6110;DHT22;3085;49.444;11.054;2023-04-29T00:50:41;12.30;99.90
6110;DHT22;3085;49.444;11.054;2023-04-29T00:53:08;12.30;99.90
6110;DHT22;3085;49.444;11.054;2023-04-29T00:55:37;13.90;99.90
6110;DHT22;3085;49.444;11.054;2023-04-29T00:58:04;12.20;99.90
6110;DHT22;3085;49.444;11.054;2023-04-29T01:00:32;12.30;99.90
6110;DHT22;3085;49.444;11.054;2023-04-29T01:02:59;12.20;99.90
6110;DHT22;3085;49.444;11.054;2023-04-29T01:05:25;12.30;99.90
6110;DHT22;3085;49.444;11.054;2023-04-29T01:08:05;12.30;99.90
6110;DHT22;3085;49.444;11.054;2023-04-29T01:10:43;12.30;99.90
6110;DHT22;3085;49.444;11.054;2023-04-29T01:13:15;12.80;99.90
6110;DHT22;3085;49.444;11.054;2023-04-29T01:15:46;12.30;99.90
6110;DHT22;3085;49.444;11.054;2023-04-29T01:18:19;12.20;99.90
6110;DHT22;3085;49.444;11.054;2023-04-29T01:20:50;12.20;99.90
6110;DHT22;3085;49.444;11.054;2023-04-29T01:23:18;12.30;99.90
6110;DHT22;3085;49.444;11.054;2023-04-29T01:25:46;12.10;99.90
6110;DHT22;3085;49.444;11.054;2023-04-29T01:28:20;13.30;99.90
6110;DHT22;3085;49.444;11.054;2023-04-29T01:30:51;13.20;99.90
6110;DHT22;3085;49.444;11.054;2023-04-29T01:33:28;12.20;99.90
6110;DHT22;3085;49.444;11.054;2023-04-29T01:36:13;12.20;99.90
6110;DHT22;3085;49.444;11.054;2023-04-29T01:38:48;12.30;99.90
6110;DHT22;3085;49.444;11.054;2023-04-29T01:41:25;12.30;99.90
6110;DHT22;3085;49.444;11.054;2023-04-29T01:43:55;12.40;99.90
6110;DHT22;3085;49.444;11.054;2023-04-29T01:46:23;12.40;99.90
6110;DHT22;3085;49.444;11.054;2023-04-29T01:48:52;13.10;99.90
6110;DHT22;3085;49.444;11.054;2023-04-29T01:51:19;12.30;99.90
6110;DHT22;3085;49.444;11.054;2023-04-29T01:53:46;12.40;99.90
6110;DHT22;3085;49.444;11.054;2023-04-29T01:56:13;12.20;99.90
6110;DHT22;3085;49.444;11.054;2023-04-29T01:58:41;12.30;99.90
6110;DHT22;3085;49.444;11.054;2023-04-29T02:01:08;12.20;99.90
6110;DHT22;3085;49.444;11.054;2023-04-29T02:03:36;12.30;99.90
6110;DHT22;3085;49.444;11.054;2023-04-29T02:06:03;12.30;99.90
6110;DHT22;3085;49.444;11.054;2023-04-29T02:08:31;12.30;99.90
6110;DHT22;3085;49.444;11.054;2023-04-29T02:10:58;12.20;99.90
6110;DHT22;3085;49.444;11.054;2023-04-29T02:13:25;12.20;99.90
6110;DHT22;3085;49.444;11.054;2023-04-29T02:15:53;12.20;99.90
6110;DHT22;3085;49.444;11.054;2023-04-29T02:18:20;12.20;99.90
6110;DHT22;3085;49.444;11.054;2023-04-29T02:20:47;12.20;99.90
6110;DHT22;3085;49.444;11.054;2023-04-29T02:23:15;12.20;99.90
6110;DHT22;3085;49.444;11.054;2023-04-29T02:25:42;12.20;99.90
6110;DHT22;3085;49.444;11.054;2023-04-29T02:28:09;11.80;99.90
6110;DHT22;3085;49.444;11.054;2023-04-29T02:30:36;12.90;99.90
6110;DHT22;3085;49.444;11.054;2023-04-29T02:33:04;12.20;99.90
6110;DHT22;3085;49.444;11.054;2023-04-29T02:35:32;12.20;99.90
6110;DHT22;3085;49.444;11.054;2023-04-29T02:37:59;12.20;99.90
6110;DHT22;3085;49.444;11.054;2023-04-29T02:40:26;12.40;99.90
6110;DHT22;3085;49.444;11.054;2023-04-29T02:42:53;12.30;99.90
6110;DHT22;3085;49.444;11.054;2023-04-29T02:45:20;12.40;99.90
6110;DHT22;3085;49.444;11.054;2023-04-29T02:47:47;12.30;99.90
6110;DHT22;3085;49.444;11.054;2023-04-29T02:50:15;12.30;99.90
6110;DHT22;3085;49.444;11.054;2023-04-29T02:52:42;12.30;99.90
6110;DHT22;3085;49.444;11.054;2023-04-29T02:55:09;12.20;99.90
6110;DHT22;3085;49.444;11.054;2023-04-29T02:57:35;12.30;99.90
6110;DHT22;3085;49.444;11.054;2023-04-29T03:00:03;12.30;99.90
6110;DHT22;3085;49.444;11.054;2023-04-29T03:02:30;12.30;99.90
6110;DHT22;3085;49.444;11.054;2023-04-29T03:04:57;12.20;99.90
6110;DHT22;3085;49.444;11.054;2023-04-29T03:07:25;12.20;99.90
6110;DHT22;3085;49.444;11.054;2023-04-29T03:09:52;12.20;99.90
6110;DHT22;3085;49.444;11.054;2023-04-29T03:12:19;12.20;99.90
6110;DHT22;3085;49.444;11.054;2023-04-29T03:14:46;12.30;99.90
6110;DHT22;3085;49.444;11.054;2023-04-29T03:17:12;12.40;99.90
6110;DHT22;3085;49.444;11.054;2023-04-29T03:19:39;12.40;99.90
6110;DHT22;3085;49.444;11.054;2023-04-29T03:22:06;12.50;99.90
6110;DHT22;3085;49.444;11.054;2023-04-29T03:24:37;12.50;99.90
6110;DHT22;3085;49.444;11.054;2023-04-29T03:27:04;12.50;99.90
6110;DHT22;3085;49.444;11.054;2023-04-29T03:29:31;12.50;99.90
6110;DHT22;3085;49.444;11.054;2023-04-29T03:31:58;12.60;99.90
6110;DHT22;3085;49.444;11.054;2023-04-29T03:34:25;12.60;99.90
6110;DHT22;3085;49.444;11.054;2023-04-29T03:36:53;12.60;99.90
6110;DHT22;3085;49.444;11.054;2023-04-29T03:39:19;12.50;99.90
6110;DHT22;3085;49.444;11.054;2023-04-29T03:41:47;12.50;99.90
6110;DHT22;3085;49.444;11.054;2023-04-29T03:44:14;12.60;99.90
6110;DHT22;3085;49.444;11.054;2023-04-29T03:46:41;12.70;99.90
6110;DHT22;3085;49.444;11.054;2023-04-29T03:49:08;12.50;99.90
6110;DHT22;3085;49.444;11.054;2023-04-29T03:51:35;12.50;99.90
6110;DHT22;3085;49.444;11.054;2023-04-29T03:54:02;12.50;99.90
6110;DHT22;3085;49.444;11.054;2023-04-29T03:56:28;12.50;99.90
6110;DHT22;3085;49.444;11.054;2023-04-29T03:58:56;12.50;99.90
6110;DHT22;3085;49.444;11.054;2023-04-29T04:01:23;12.60;99.90
6110;DHT22;3085;49.444;11.054;2023-04-29T04:03:50;12.60;99.90
6110;DHT22;3085;49.444;11.054;2023-04-29T04:06:17;12.60;99.90
6110;DHT22;3085;49.444;11.054;2023-04-29T04:08:44;12.60;99.90
6110;DHT22;3085;49.444;11.054;2023-04-29T04:11:10;12.70;99.90
6110;DHT22;3085;49.444;11.054;2023-04-29T04:13:39;12.50;99.90
6110;DHT22;3085;49.444;11.054;2023-04-29T04:16:08;12.70;99.90
6110;DHT22;3085;49.444;11.054;2023-04-29T04:18:35;12.70;99.90
6110;DHT22;3085;49.444;11.054;2023-04-29T04:21:05;12.70;99.90
6110;DHT22;3085;49.444;11.054;2023-04-29T04:23:32;12.70;99.90
6110;DHT22;3085;49.444;11.054;2023-04-29T04:25:59;12.70;99.90
6110;DHT22;3085;49.444;11.054;2023-04-29T04:28:26;12.70;99.90
6110;DHT22;3085;49.444;11.054;2023-04-29T04:30:52;12.70;99.90
6110;DHT22;3085;49.444;11.054;2023-04-29T04:33:21;12.70;99.90
6110;DHT22;3085;49.444;11.054;2023-04-29T04:35:47;12.60;99.90
6110;DHT22;3085;49.444;11.054;2023-04-29T04:38:14;12.50;99.90
6110;DHT22;3085;49.444;11.054;2023-04-29T04:40:42;12.50;99.90
6110;DHT22;3085;49.444;11.054;2023-04-29T04:43:09;12.60;99.90
6110;DHT22;3085;49.444;11.054;2023-04-29T04:45:36;12.60;99.90
6110;DHT22;3085;49.444;11.054;2023-04-29T04:48:03;12.50;99.90
6110;DHT22;3085;49.444;11.054;2023-04-29T04:50:31;12.50;99.90
6110;DHT22;3085;49.444;11.054;2023-04-29T04:52:58;12.50;99.90
6110;DHT22;3085;49.444;11.054;2023-04-29T04:55:25;12.60;99.90
6110;DHT22;3085;49.444;11.054;2023-04-29T04:57:52;12.50;99.90
6110;DHT22;3085;49.444;11.054;2023-04-29T05:00:19;12.50;99.90
6110;DHT22;3085;49.444;11.054;2023-04-29T05:02:46;12.50;99.90
6110;DHT22;3085;49.444;11.054;2023-04-29T05:05:13;12.60;99.90
6110;DHT22;3085;49.444;11.054;2023-04-29T05:07:41;12.50;99.90
6110;DHT22;3085;49.444;11.054;2023-04-29T05:10:09;12.50;99.90
6110;DHT22;3085;49.444;11.054;2023-04-29T05:12:36;12.50;99.90
6110;DHT22;3085;49.444;11.054;2023-04-29T05:15:03;12.60;99.90
6110;DHT22;3085;49.444;11.054;2023-04-29T05:17:30;12.60;99.90
6110;DHT22;3085;49.444;11.054;2023-04-29T05:19:57;12.60;99.90
6110;DHT22;3085;49.444;11.054;2023-04-29T05:22:23;12.60;99.90
6110;DHT22;3085;49.444;11.054;2023-04-29T05:24:52;12.70;99.90
6110;DHT22;3085;49.444;11.054;2023-04-29T05:27:19;12.60;99.90
6110;DHT22;3085;49.444;11.054;2023-04-29T05:29:46;12.60;99.90
6110;DHT22;3085;49.444;11.054;2023-04-29T05:32:13;12.70;99.90
6110;DHT22;3085;49.444;11.054;2023-04-29T05:34:40;12.70;99.90
6110;DHT22;3085;49.444;11.054;2023-04-29T05:37:06;12.70;99.90
6110;DHT22;3085;49.444;11.054;2023-04-29T05:39:33;12.70;99.90
6110;DHT22;3085;49.444;11.054;2023-04-29T05:42:01;12.60;99.90
6110;DHT22;3085;49.444;11.054;2023-04-29T05:44:28;12.70;99.90
6110;DHT22;3085;49.444;11.054;2023-04-29T05:46:55;12.70;99.90
6110;DHT22;3085;49.444;11.054;2023-04-29T05:49:22;12.70;99.90
6110;DHT22;3085;49.444;11.054;2023-04-29T05:51:48;12.70;99.90
6110;DHT22;3085;49.444;11.054;2023-04-29T05:54:15;12.70;99.90
6110;DHT22;3085;49.444;11.054;2023-04-29T05:56:42;12.70;99.90
6110;DHT22;3085;49.444;11.054;2023-04-29T05:59:12;12.80;99.90
6110;DHT22;3085;49.444;11.054;2023-04-29T06:01:42;12.80;99.90
6110;DHT22;3085;49.444;11.054;2023-04-29T06:04:09;13.00;99.90
6110;DHT22;3085;49.444;11.054;2023-04-29T06:06:35;13.00;99.90
6110;DHT22;3085;49.444;11.054;2023-04-29T06:09:03;13.00;99.90
6110;DHT22;3085;49.444;11.054;2023-04-29T06:11:30;13.00;99.90
6110;DHT22;3085;49.444;11.054;2023-04-29T06:13:57;13.00;99.90
6110;DHT22;3085;49.444;11.054;2023-04-29T06:16:25;13.00;99.90
6110;DHT22;3085;49.444;11.054;2023-04-29T06:18:52;13.10;99.90
6110;DHT22;3085;49.444;11.054;2023-04-29T06:21:19;13.00;99.90
6110;DHT22;3085;49.444;11.054;2023-04-29T06:23:45;12.90;99.90
6110;DHT22;3085;49.444;11.054;2023-04-29T06:26:17;13.00;99.90
6110;DHT22;3085;49.444;11.054;2023-04-29T06:28:47;13.00;99.90
6110;DHT22;3085;49.444;11.054;2023-04-29T06:31:37;13.00;99.90
6110;DHT22;3085;49.444;11.054;2023-04-29T06:34:19;13.00;99.90
6110;DHT22;3085;49.444;11.054;2023-04-29T06:36:46;13.00;99.90
6110;DHT22;3085;49.444;11.054;2023-04-29T06:39:23;13.10;99.90
6110;DHT22;3085;49.444;11.054;2023-04-29T06:41:55;13.10;99.90
6110;DHT22;3085;49.444;11.054;2023-04-29T06:47:10;12.80;99.90
6110;DHT22;3085;49.444;11.054;2023-04-29T06:49:44;12.80;99.90
6110;DHT22;3085;49.444;11.054;2023-04-29T06:52:18;12.90;99.90
6110;DHT22;3085;49.444;11.054;2023-04-29T06:54:48;12.90;99.90
6110;DHT22;3085;49.444;11.054;2023-04-29T06:57:25;12.90;99.90
6110;DHT22;3085;49.444;11.054;2023-04-29T06:59:58;13.90;99.90
6110;DHT22;3085;49.444;11.054;2023-04-29T07:02:31;12.90;99.90
6110;DHT22;3085;49.444;11.054;2023-04-29T07:05:08;12.90;99.90
6110;DHT22;3085;49.444;11.054;2023-04-29T07:07:37;12.90;99.90
6110;DHT22;3085;49.444;11.054;2023-04-29T07:10:13;13.00;99.90
6110;DHT22;3085;49.444;11.054;2023-04-29T07:12:49;12.90;99.90
6110;DHT22;3085;49.444;11.054;2023-04-29T07:15:19;14.10;99.90
6110;DHT22;3085;49.444;11.054;2023-04-29T07:17:49;13.00;99.90
6110;DHT22;3085;49.444;11.054;2023-04-29T07:20:18;13.10;99.90
6110;DHT22;3085;49.444;11.054;2023-04-29T07:22:47;13.10;99.90
6110;DHT22;3085;49.444;11.054;2023-04-29T07:25:17;14.30;99.90
6110;DHT22;3085;49.444;11.054;2023-04-29T07:27:45;13.10;99.90
6110;DHT22;3085;49.444;11.054;2023-04-29T07:30:13;13.20;99.90
6110;DHT22;3085;49.444;11.054;2023-04-29T07:32:41;13.20;99.90
6110;DHT22;3085;49.444;11.054;2023-04-29T07:35:10;12.10;99.90
6110;DHT22;3085;49.444;11.054;2023-04-29T07:37:48;14.00;99.90
6110;DHT22;3085;49.444;11.054;2023-04-29T07:40:16;11.70;99.90
6110;DHT22;3085;49.444;11.054;2023-04-29T07:42:46;13.30;99.90
6110;DHT22;3085;49.444;11.054;2023-04-29T07:45:17;14.30;99.90
6110;DHT22;3085;49.444;11.054;2023-04-29T07:47:46;13.20;99.90
6110;DHT22;3085;49.444;11.054;2023-04-29T07:50:18;12.10;99.90
6110;DHT22;3085;49.444;11.054;2023-04-29T07:52:49;13.30;99.90
6110;DHT22;3085;49.444;11.054;2023-04-29T07:55:21;12.80;99.90
6110;DHT22;3085;49.444;11.054;2023-04-29T07:58:13;13.30;99.90
6110;DHT22;3085;49.444;11.054;2023-04-29T08:01:19;13.70;99.90
6110;DHT22;3085;49.444;11.054;2023-04-29T08:04:09;13.30;99.90
6110;DHT22;3085;49.444;11.054;2023-04-29T08:17:55;14.70;99.90
6110;DHT22;3085;49.444;11.054;2023-04-29T08:20:31;12.90;99.90
6110;DHT22;3085;49.444;11.054;2023-04-29T08:23:39;13.60;99.90
6110;DHT22;3085;49.444;11.054;2023-04-29T08:34:20;13.70;99.90
6110;DHT22;3085;49.444;11.054;2023-04-29T08:36:04;13.60;99.90
6110;DHT22;3085;49.444;11.054;2023-04-29T08:38:33;13.70;99.90
6110;DHT22;3085;49.444;11.054;2023-04-29T08:41:01;13.60;99.90
6110;DHT22;3085;49.444;11.054;2023-04-29T08:43:28;13.60;99.90
6110;DHT22;3085;49.444;11.054;2023-04-29T08:45:57;13.60;99.90
6110;DHT22;3085;49.444;11.054;2023-04-29T08:48:24;13.50;99.90
6110;DHT22;3085;49.444;11.054;2023-04-29T08:50:53;13.50;99.90
6110;DHT22;3085;49.444;11.054;2023-04-29T08:53:20;13.60;99.90
6110;DHT22;3085;49.444;11.054;2023-04-29T08:55:47;13.60;99.90
6110;DHT22;3085;49.444;11.054;2023-04-29T08:58:15;13.60;99.90
6110;DHT22;3085;49.444;11.054;2023-04-29T09:00:44;13.60;99.90
6110;DHT22;3085;49.444;11.054;2023-04-29T09:03:13;13.90;99.90
6110;DHT22;3085;49.444;11.054;2023-04-29T09:05:42;13.50;99.90
6110;DHT22;3085;49.444;11.054;2023-04-29T09:08:11;13.60;99.90
6110;DHT22;3085;49.444;11.054;2023-04-29T09:10:39;13.60;99.90
6110;DHT22;3085;49.444;11.054;2023-04-29T09:13:07;13.70;99.90
6110;DHT22;3085;49.444;11.054;2023-04-29T09:15:36;13.80;99.90
6110;DHT22;3085;49.444;11.054;2023-04-29T09:18:05;13.80;99.90
6110;DHT22;3085;49.444;11.054;2023-04-29T09:20:32;13.90;99.90
6110;DHT22;3085;49.444;11.054;2023-04-29T09:23:00;13.90;99.90
6110;DHT22;3085;49.444;11.054;2023-04-29T09:25:28;14.20;99.90
6110;DHT22;3085;49.444;11.054;2023-04-29T09:27:55;14.20;99.90
6110;DHT22;3085;49.444;11.054;2023-04-29T09:30:22;14.10;99.90
6110;DHT22;3085;49.444;11.054;2023-04-29T09:33:06;14.10;99.90
6110;DHT22;3085;49.444;11.054;2023-04-29T09:35:33;14.20;99.90
6110;DHT22;3085;49.444;11.054;2023-04-29T09:38:11;14.20;99.90
6110;DHT22;3085;49.444;11.054;2023-04-29T09:40:39;14.00;99.90
6110;DHT22;3085;49.444;11.054;2023-04-29T09:43:12;13.90;99.90
6110;DHT22;3085;49.444;11.054;2023-04-29T09:45:40;14.00;99.90
6110;DHT22;3085;49.444;11.054;2023-04-29T09:48:10;13.90;99.90
6110;DHT22;3085;49.444;11.054;2023-04-29T09:50:38;13.90;99.90
6110;DHT22;3085;49.444;11.054;2023-04-29T09:53:06;13.90;99.90
6110;DHT22;3085;49.444;11.054;2023-04-29T09:55:33;14.00;99.90
6110;DHT22;3085;49.444;11.054;2023-04-29T09:58:01;14.10;99.90
6110;DHT22;3085;49.444;11.054;2023-04-29T10:00:33;14.10;99.90
6110;DHT22;3085;49.444;11.054;2023-04-29T10:03:00;14.20;99.90
6110;DHT22;3085;49.444;11.054;2023-04-29T10:05:29;14.40;99.90
6110;DHT22;3085;49.444;11.054;2023-04-29T10:07:57;14.30;99.90
6110;DHT22;3085;49.444;11.054;2023-04-29T10:10:26;14.50;99.90
6110;DHT22;3085;49.444;11.054;2023-04-29T10:12:54;14.50;99.90
6110;DHT22;3085;49.444;11.054;2023-04-29T10:15:26;14.40;99.90
6110;DHT22;3085;49.444;11.054;2023-04-29T10:17:58;14.80;99.90
6110;DHT22;3085;49.444;11.054;2023-04-29T10:20:26;14.80;99.90
6110;DHT22;3085;49.444;11.054;2023-04-29T10:22:55;14.70;99.90
6110;DHT22;3085;49.444;11.054;2023-04-29T10:25:25;14.70;99.90
6110;DHT22;3085;49.444;11.054;2023-04-29T10:27:55;14.70;99.90
6110;DHT22;3085;49.444;11.054;2023-04-29T10:30:24;14.80;99.90
6110;DHT22;3085;49.444;11.054;2023-04-29T10:32:52;14.70;99.90
6110;DHT22;3085;49.444;11.054;2023-04-29T10:35:22;14.70;99.90
6110;DHT22;3085;49.444;11.054;2023-04-29T10:37:50;14.70;99.90
6110;DHT22;3085;49.444;11.054;2023-04-29T10:40:23;14.60;99.90
6110;DHT22;3085;49.444;11.054;2023-04-29T10:42:54;14.60;99.90
6110;DHT22;3085;49.444;11.054;2023-04-29T10:45:23;14.50;99.90
6110;DHT22;3085;49.444;11.054;2023-04-29T10:48:15;14.60;99.90
6110;DHT22;3085;49.444;11.054;2023-04-29T10:51:01;14.60;99.90
6110;DHT22;3085;49.444;11.054;2023-04-29T10:53:30;14.70;99.90
6110;DHT22;3085;49.444;11.054;2023-04-29T10:56:08;14.70;99.90
6110;DHT22;3085;49.444;11.054;2023-04-29T10:58:41;14.70;99.90
6110;DHT22;3085;49.444;11.054;2023-04-29T11:01:10;14.80;99.90
6110;DHT22;3085;49.444;11.054;2023-04-29T11:03:49;14.90;99.90
6110;DHT22;3085;49.444;11.054;2023-04-29T11:06:21;14.80;99.90
6110;DHT22;3085;49.444;11.054;2023-04-29T11:08:59;14.70;99.90
6110;DHT22;3085;49.444;11.054;2023-04-29T11:11:44;14.90;99.90
6110;DHT22;3085;49.444;11.054;2023-04-29T11:14:13;14.70;99.90
6110;DHT22;3085;49.444;11.054;2023-04-29T11:16:47;14.60;99.90
6110;DHT22;3085;49.444;11.054;2023-04-29T11:19:15;14.50;99.90
6110;DHT22;3085;49.444;11.054;2023-04-29T11:21:45;14.50;99.90
6110;DHT22;3085;49.444;11.054;2023-04-29T11:24:13;14.60;99.90
6110;DHT22;3085;49.444;11.054;2023-04-29T11:26:43;14.60;99.90
6110;DHT22;3085;49.444;11.054;2023-04-29T11:29:11;14.60;99.90
6110;DHT22;3085;49.444;11.054;2023-04-29T11:31:38;14.50;99.90
6110;DHT22;3085;49.444;11.054;2023-04-29T11:34:05;14.40;99.90
6110;DHT22;3085;49.444;11.054;2023-04-29T11:36:35;14.50;99.90
6110;DHT22;3085;49.444;11.054;2023-04-29T11:39:03;14.50;99.90
6110;DHT22;3085;49.444;11.054;2023-04-29T11:41:30;14.40;99.90
6110;DHT22;3085;49.444;11.054;2023-04-29T11:44:00;14.40;99.90
6110;DHT22;3085;49.444;11.054;2023-04-29T11:46:30;14.40;99.90
6110;DHT22;3085;49.444;11.054;2023-04-29T11:48:57;14.40;99.90
6110;DHT22;3085;49.444;11.054;2023-04-29T11:51:25;14.50;99.90
6110;DHT22;3085;49.444;11.054;2023-04-29T11:53:53;14.50;99.90
6110;DHT22;3085;49.444;11.054;2023-04-29T11:56:21;14.50;99.90
6110;DHT22;3085;49.444;11.054;2023-04-29T11:58:53;14.60;99.90
6110;DHT22;3085;49.444;11.054;2023-04-29T12:01:24;14.60;99.90
6110;DHT22;3085;49.444;11.054;2023-04-29T12:03:56;14.50;99.90
6110;DHT22;3085;49.444;11.054;2023-04-29T12:06:27;14.30;99.90
6110;DHT22;3085;49.444;11.054;2023-04-29T12:08:58;14.30;99.90
6110;DHT22;3085;49.444;11.054;2023-04-29T12:11:26;13.80;99.90
6110;DHT22;3085;49.444;11.054;2023-04-29T12:13:55;14.30;99.90
6110;DHT22;3085;49.444;11.054;2023-04-29T12:16:24;14.20;99.90
6110;DHT22;3085;49.444;11.054;2023-04-29T12:18:54;14.20;99.90
6110;DHT22;3085;49.444;11.054;2023-04-29T12:21:22;14.10;99.90
6110;DHT22;3085;49.444;11.054;2023-04-29T12:23:50;14.10;99.90
6110;DHT22;3085;49.444;11.054;2023-04-29T12:26:18;14.10;99.90
6110;DHT22;3085;49.444;11.054;2023-04-29T12:28:52;14.10;99.90
6110;DHT22;3085;49.444;11.054;2023-04-29T12:31:20;14.00;99.90
6110;DHT22;3085;49.444;11.054;2023-04-29T12:33:53;14.00;99.90
6110;DHT22;3085;49.444;11.054;2023-04-29T12:36:22;14.00;99.90
6110;DHT22;3085;49.444;11.054;2023-04-29T12:38:54;14.10;99.90
6110;DHT22;3085;49.444;11.054;2023-04-29T12:41:35;14.10;99.90
6110;DHT22;3085;49.444;11.054;2023-04-29T12:44:04;14.00;99.90
6110;DHT22;3085;49.444;11.054;2023-04-29T12:46:36;14.00;99.90
6110;DHT22;3085;49.444;11.054;2023-04-29T12:49:08;14.10;99.90
6110;DHT22;3085;49.444;11.054;2023-04-29T12:51:35;14.00;99.90
6110;DHT22;3085;49.444;11.054;2023-04-29T12:54:03;14.00;99.90
6110;DHT22;3085;49.444;11.054;2023-04-29T12:56:34;14.00;99.90
6110;DHT22;3085;49.444;11.054;2023-04-29T12:59:09;14.00;99.90
6110;DHT22;3085;49.444;11.054;2023-04-29T13:01:37;13.90;99.90
6110;DHT22;3085;49.444;11.054;2023-04-29T13:04:15;13.90;99.90
6110;DHT22;3085;49.444;11.054;2023-04-29T13:06:45;12.40;99.90
6110;DHT22;3085;49.444;11.054;2023-04-29T13:09:13;11.70;99.90
6110;DHT22;3085;49.444;11.054;2023-04-29T13:11:42;13.90;99.90
6110;DHT22;3085;49.444;11.054;2023-04-29T13:14:10;12.00;99.90
6110;DHT22;3085;49.444;11.054;2023-04-29T13:16:41;13.90;99.90
6110;DHT22;3085;49.444;11.054;2023-04-29T13:19:15;14.10;99.90
6110;DHT22;3085;49.444;11.054;2023-04-29T13:21:55;14.10;99.90
6110;DHT22;3085;49.444;11.054;2023-04-29T13:24:27;13.10;99.90
6110;DHT22;3085;49.444;11.054;2023-04-29T13:26:55;14.20;99.90
6110;DHT22;3085;49.444;11.054;2023-04-29T13:29:23;14.20;99.90
6110;DHT22;3085;49.444;11.054;2023-04-29T13:31:50;13.40;99.90
6110;DHT22;3085;49.444;11.054;2023-04-29T13:34:19;14.50;99.90
6110;DHT22;3085;49.444;11.054;2023-04-29T13:36:50;13.60;99.90
6110;DHT22;3085;49.444;11.054;2023-04-29T13:39:23;14.50;99.90
6110;DHT22;3085;49.444;11.054;2023-04-29T13:41:50;14.20;99.90
6110;DHT22;3085;49.444;11.054;2023-04-29T13:44:17;14.30;99.90
6110;DHT22;3085;49.444;11.054;2023-04-29T13:46:54;14.30;99.90
6110;DHT22;3085;49.444;11.054;2023-04-29T13:49:27;14.30;99.90
6110;DHT22;3085;49.444;11.054;2023-04-29T13:51:59;14.30;99.90
6110;DHT22;3085;49.444;11.054;2023-04-29T13:54:33;12.10;99.90
6110;DHT22;3085;49.444;11.054;2023-04-29T13:57:03;14.30;99.90
6110;DHT22;3085;49.444;11.054;2023-04-29T13:59:36;13.30;99.90
6110;DHT22;3085;49.444;11.054;2023-04-29T14:02:04;14.40;99.90
6110;DHT22;3085;49.444;11.054;2023-04-29T14:04:45;14.30;99.90
6110;DHT22;3085;49.444;11.054;2023-04-29T14:07:14;14.50;99.90
6110;DHT22;3085;49.444;11.054;2023-04-29T14:09:41;12.50;99.90
6110;DHT22;3085;49.444;11.054;2023-04-29T14:12:08;14.40;99.90
6110;DHT22;3085;49.444;11.054;2023-04-29T14:14:36;14.40;99.90
6110;DHT22;3085;49.444;11.054;2023-04-29T14:17:03;16.60;99.90
6110;DHT22;3085;49.444;11.054;2023-04-29T14:19:33;14.60;99.90
6110;DHT22;3085;49.444;11.054;2023-04-29T14:22:04;14.10;99.90
6110;DHT22;3085;49.444;11.054;2023-04-29T14:24:31;14.40;99.90
6110;DHT22;3085;49.444;11.054;2023-04-29T14:26:58;14.30;99.90
6110;DHT22;3085;49.444;11.054;2023-04-29T14:29:26;15.60;99.90
6110;DHT22;3085;49.444;11.054;2023-04-29T14:31:54;14.40;99.90
6110;DHT22;3085;49.444;11.054;2023-04-29T14:34:22;14.30;99.90
6110;DHT22;3085;49.444;11.054;2023-04-29T14:36:48;16.30;99.90
6110;DHT22;3085;49.444;11.054;2023-04-29T14:39:17;14.20;99.90
6110;DHT22;3085;49.444;11.054;2023-04-29T14:41:43;13.90;99.90
6110;DHT22;3085;49.444;11.054;2023-04-29T14:44:11;14.10;99.90
6110;DHT22;3085;49.444;11.054;2023-04-29T14:46:38;14.10;99.90
6110;DHT22;3085;49.444;11.054;2023-04-29T14:49:05;14.00;99.90
6110;DHT22;3085;49.444;11.054;2023-04-29T14:51:31;13.90;99.90
6110;DHT22;3085;49.444;11.054;2023-04-29T14:53:58;13.90;99.90
6110;DHT22;3085;49.444;11.054;2023-04-29T14:56:27;13.90;99.90
6110;DHT22;3085;49.444;11.054;2023-04-29T14:58:54;15.60;99.90
6110;DHT22;3085;49.444;11.054;2023-04-29T15:01:20;13.80;99.90
6110;DHT22;3085;49.444;11.054;2023-04-29T15:03:47;13.90;99.90
6110;DHT22;3085;49.444;11.054;2023-04-29T15:06:14;13.90;99.90
6110;DHT22;3085;49.444;11.054;2023-04-29T15:08:41;13.90;99.90
6110;DHT22;3085;49.444;11.054;2023-04-29T15:11:08;13.90;99.90
6110;DHT22;3085;49.444;11.054;2023-04-29T15:13:36;13.90;99.90
6110;DHT22;3085;49.444;11.054;2023-04-29T15:16:04;13.90;99.90
6110;DHT22;3085;49.444;11.054;2023-04-29T15:18:32;13.90;99.90
6110;DHT22;3085;49.444;11.054;2023-04-29T15:20:59;13.90;99.90
6110;DHT22;3085;49.444;11.054;2023-04-29T15:23:25;13.80;99.90
6110;DHT22;3085;49.444;11.054;2023-04-29T15:25:52;13.80;99.90
6110;DHT22;3085;49.444;11.054;2023-04-29T15:28:19;13.80;99.90
6110;DHT22;3085;49.444;11.054;2023-04-29T15:30:49;13.80;99.90
6110;DHT22;3085;49.444;11.054;2023-04-29T15:33:15;15.60;99.90
6110;DHT22;3085;49.444;11.054;2023-04-29T15:35:42;14.00;99.90
6110;DHT22;3085;49.444;11.054;2023-04-29T15:38:11;13.80;99.90
6110;DHT22;3085;49.444;11.054;2023-04-29T15:40:38;15.60;99.90
6110;DHT22;3085;49.444;11.054;2023-04-29T15:43:06;13.90;99.90
6110;DHT22;3085;49.444;11.054;2023-04-29T15:45:33;13.50;99.90
6110;DHT22;3085;49.444;11.054;2023-04-29T15:48:01;14.00;99.90
6110;DHT22;3085;49.444;11.054;2023-04-29T15:50:28;14.00;99.90
6110;DHT22;3085;49.444;11.054;2023-04-29T15:52:55;14.10;99.90
6110;DHT22;3085;49.444;11.054;2023-04-29T15:55:23;14.10;99.90
6110;DHT22;3085;49.444;11.054;2023-04-29T15:57:50;13.80;99.90
6110;DHT22;3085;49.444;11.054;2023-04-29T16:00:17;13.80;99.90
6110;DHT22;3085;49.444;11.054;2023-04-29T16:02:43;13.70;99.90
6110;DHT22;3085;49.444;11.054;2023-04-29T16:05:12;13.50;99.90
6110;DHT22;3085;49.444;11.054;2023-04-29T16:07:39;13.50;99.90
6110;DHT22;3085;49.444;11.054;2023-04-29T16:10:06;13.50;99.90
6110;DHT22;3085;49.444;11.054;2023-04-29T16:12:34;13.50;99.90
6110;DHT22;3085;49.444;11.054;2023-04-29T16:15:00;13.50;99.90
6110;DHT22;3085;49.444;11.054;2023-04-29T16:17:27;13.40;99.90
6110;DHT22;3085;49.444;11.054;2023-04-29T16:19:54;13.50;99.90